METAR Data
IDs: Format: Raw Decoded Include TAF

Data at: 1347 UTC 14 Dec 2019

METAR for:KOXV (Knoxville Muni, IA, US)
Text:KOXV 141335Z AUTO 33013KT 9SM FEW017 OVC027 M05/M07 A2989 RMK AO2
Temperature: -5.0°C ( 23°F)
Dewpoint: -7.0°C ( 19°F) [RH = 86%]
Pressure (altimeter):29.89 inches Hg (1012.3 mb)
Winds:from the NNW (330 degrees) at 15 MPH (13 knots; 6.7 m/s)
Visibility: 9 sm ( 14 km)
Ceiling:2700 feet AGL
Clouds: few clouds at 1700 feet AGL, overcast cloud deck at 2700 feet AGL
QC Flag:automated observation with no human augmentation